AIRPORT METAR

METAR FOR LIMZ
ADDS - METARS form results

(1751 UTC 20 July 2019)
Data provider http://aviationweather.gov/metar/data/
 
Forecast for: LIMZ (LEVALDIGI , IT)
Text: TAF LIMZ 201700Z 2018/2118 VRB05KT CAVOK
Forecast period: 1800 UTC 20 July 2019 to 1800 UTC 21 July 2019
Forecast type: FROM: standard forecast or significant change
Winds: variable direction winds at 6 MPH (5 knots; 2.6 m/s)
Visibility: 6 or more miles 10+ km)
Ceiling: unknown
Clouds: missing
Weather: NSW  (no significant weather)

AIRPORT MAP

 RUNWAY INFORMATION
Runway 03 Runway length 6903 ft Runway width 148 ft
Runway elevation 1267 ft Runway displaced threshold 0 ft Runway heading 32
Runway 21 Runway length 6903 ft Runway width 148 ft
Runway elevation 1217 ft Runway displaced threshold 0 ft Runway heading 212

 AIRPORT FREQUENCIES
Type AFIS Name CUNEO INFO Frequency 119.55 MHZ

 AIRPORT NEAR NAVIGATION AIDS
Type NDB Name Levaldigi Frequency 371 KHZ



© 2017 - Royal Sky Service, All Right Reserved. | Design & Developed by Davide Torresan